sensor_id;sensor_type;location;lat;lon;timestamp;P1;durP1;ratioP1;P2;durP2;ratioP2
29688;SDS011;16600;47.444;8.334;2023-09-19T00:02:01;2.10;;;1.58;;
29688;SDS011;16600;47.444;8.334;2023-09-19T00:04:32;2.15;;;1.60;;
29688;SDS011;16600;47.444;8.334;2023-09-19T00:06:59;4.00;;;1.90;;
29688;SDS011;16600;47.444;8.334;2023-09-19T00:09:24;3.40;;;1.95;;
29688;SDS011;16600;47.444;8.334;2023-09-19T00:11:52;3.40;;;2.03;;
29688;SDS011;16600;47.444;8.334;2023-09-19T00:14:18;2.08;;;1.70;;
29688;SDS011;16600;47.444;8.334;2023-09-19T00:16:43;11.00;;;1.92;;
29688;SDS011;16600;47.444;8.334;2023-09-19T00:19:09;3.78;;;2.10;;
29688;SDS011;16600;47.444;8.334;2023-09-19T00:21:35;6.20;;;1.90;;
29688;SDS011;16600;47.444;8.334;2023-09-19T00:24:03;2.90;;;1.70;;
29688;SDS011;16600;47.444;8.334;2023-09-19T00:26:30;2.80;;;2.03;;
29688;SDS011;16600;47.444;8.334;2023-09-19T00:28:57;3.33;;;1.90;;
29688;SDS011;16600;47.444;8.334;2023-09-19T00:31:22;2.47;;;2.03;;
29688;SDS011;16600;47.444;8.334;2023-09-19T00:33:48;2.50;;;1.73;;
29688;SDS011;16600;47.444;8.334;2023-09-19T00:36:14;3.03;;;2.50;;
29688;SDS011;16600;47.444;8.334;2023-09-19T00:38:39;2.58;;;1.77;;
29688;SDS011;16600;47.444;8.334;2023-09-19T00:41:05;3.17;;;2.03;;
29688;SDS011;16600;47.444;8.334;2023-09-19T00:43:30;3.08;;;1.80;;
29688;SDS011;16600;47.444;8.334;2023-09-19T00:45:59;11.60;;;2.03;;
29688;SDS011;16600;47.444;8.334;2023-09-19T00:48:26;7.35;;;2.03;;
29688;SDS011;16600;47.444;8.334;2023-09-19T00:50:54;3.80;;;2.10;;
29688;SDS011;16600;47.444;8.334;2023-09-19T00:53:23;3.25;;;2.08;;
29688;SDS011;16600;47.444;8.334;2023-09-19T00:55:49;2.08;;;1.70;;
29688;SDS011;16600;47.444;8.334;2023-09-19T00:58:16;2.92;;;2.20;;
29688;SDS011;16600;47.444;8.334;2023-09-19T01:00:41;4.00;;;2.20;;
29688;SDS011;16600;47.444;8.334;2023-09-19T01:03:10;3.20;;;2.28;;
29688;SDS011;16600;47.444;8.334;2023-09-19T01:05:36;2.38;;;1.92;;
29688;SDS011;16600;47.444;8.334;2023-09-19T01:08:01;2.58;;;2.05;;
29688;SDS011;16600;47.444;8.334;2023-09-19T01:10:27;3.22;;;1.92;;
29688;SDS011;16600;47.444;8.334;2023-09-19T01:20:39;5.53;;;2.35;;
29688;SDS011;16600;47.444;8.334;2023-09-19T01:30:47;2.90;;;2.22;;
29688;SDS011;16600;47.444;8.334;2023-09-19T01:33:17;5.35;;;2.35;;
29688;SDS011;16600;47.444;8.334;2023-09-19T01:35:42;4.65;;;1.98;;
29688;SDS011;16600;47.444;8.334;2023-09-19T01:38:09;2.97;;;2.13;;
29688;SDS011;16600;47.444;8.334;2023-09-19T01:40:36;4.47;;;2.47;;
29688;SDS011;16600;47.444;8.334;2023-09-19T01:43:08;2.40;;;1.90;;
29688;SDS011;16600;47.444;8.334;2023-09-19T01:48:22;3.75;;;2.63;;
29688;SDS011;16600;47.444;8.334;2023-09-19T01:55:58;2.25;;;2.05;;
29688;SDS011;16600;47.444;8.334;2023-09-19T01:58:29;2.80;;;1.85;;
29688;SDS011;16600;47.444;8.334;2023-09-19T02:00:57;3.92;;;2.05;;
29688;SDS011;16600;47.444;8.334;2023-09-19T02:03:24;3.53;;;1.95;;
29688;SDS011;16600;47.444;8.334;2023-09-19T02:05:50;2.30;;;1.90;;
29688;SDS011;16600;47.444;8.334;2023-09-19T02:08:20;5.68;;;1.90;;
29688;SDS011;16600;47.444;8.334;2023-09-19T02:10:46;1.92;;;1.20;;
29688;SDS011;16600;47.444;8.334;2023-09-19T02:13:21;4.05;;;2.30;;
29688;SDS011;16600;47.444;8.334;2023-09-19T02:15:47;2.55;;;1.63;;
29688;SDS011;16600;47.444;8.334;2023-09-19T02:18:13;3.03;;;1.80;;
29688;SDS011;16600;47.444;8.334;2023-09-19T02:20:39;6.32;;;1.50;;
29688;SDS011;16600;47.444;8.334;2023-09-19T02:23:05;2.05;;;1.40;;
29688;SDS011;16600;47.444;8.334;2023-09-19T02:25:31;3.30;;;1.80;;
29688;SDS011;16600;47.444;8.334;2023-09-19T02:27:57;3.13;;;1.90;;
29688;SDS011;16600;47.444;8.334;2023-09-19T02:30:24;3.78;;;2.03;;
29688;SDS011;16600;47.444;8.334;2023-09-19T02:32:50;2.80;;;1.80;;
29688;SDS011;16600;47.444;8.334;2023-09-19T02:35:16;3.65;;;1.70;;
29688;SDS011;16600;47.444;8.334;2023-09-19T02:37:41;2.05;;;1.77;;
29688;SDS011;16600;47.444;8.334;2023-09-19T02:40:07;1.45;;;1.35;;
29688;SDS011;16600;47.444;8.334;2023-09-19T02:42:53;3.20;;;1.90;;
29688;SDS011;16600;47.444;8.334;2023-09-19T02:45:19;2.57;;;1.37;;
29688;SDS011;16600;47.444;8.334;2023-09-19T02:47:44;3.58;;;1.80;;
29688;SDS011;16600;47.444;8.334;2023-09-19T02:50:10;1.88;;;1.38;;
29688;SDS011;16600;47.444;8.334;2023-09-19T02:52:36;2.08;;;1.33;;
29688;SDS011;16600;47.444;8.334;2023-09-19T02:55:02;7.03;;;1.75;;
29688;SDS011;16600;47.444;8.334;2023-09-19T02:57:29;1.77;;;1.38;;
29688;SDS011;16600;47.444;8.334;2023-09-19T02:59:56;1.40;;;1.10;;
29688;SDS011;16600;47.444;8.334;2023-09-19T03:02:22;1.77;;;1.27;;
29688;SDS011;16600;47.444;8.334;2023-09-19T03:04:49;2.28;;;1.58;;
29688;SDS011;16600;47.444;8.334;2023-09-19T03:07:16;1.60;;;1.27;;
29688;SDS011;16600;47.444;8.334;2023-09-19T03:09:42;1.02;;;0.95;;
29688;SDS011;16600;47.444;8.334;2023-09-19T03:12:08;1.95;;;1.40;;
29688;SDS011;16600;47.444;8.334;2023-09-19T03:14:34;2.88;;;1.00;;
29688;SDS011;16600;47.444;8.334;2023-09-19T03:17:01;3.33;;;1.20;;
29688;SDS011;16600;47.444;8.334;2023-09-19T03:19:30;1.85;;;1.10;;
29688;SDS011;16600;47.444;8.334;2023-09-19T03:21:57;7.60;;;1.52;;
29688;SDS011;16600;47.444;8.334;2023-09-19T03:24:23;2.20;;;2.00;;
29688;SDS011;16600;47.444;8.334;2023-09-19T03:26:49;4.28;;;1.40;;
29688;SDS011;16600;47.444;8.334;2023-09-19T03:29:15;1.98;;;1.50;;
29688;SDS011;16600;47.444;8.334;2023-09-19T03:31:43;2.30;;;1.50;;
29688;SDS011;16600;47.444;8.334;2023-09-19T03:34:08;4.18;;;1.88;;
29688;SDS011;16600;47.444;8.334;2023-09-19T03:36:34;3.15;;;1.48;;
29688;SDS011;16600;47.444;8.334;2023-09-19T03:39:00;5.47;;;1.20;;
29688;SDS011;16600;47.444;8.334;2023-09-19T03:41:27;1.30;;;1.00;;
29688;SDS011;16600;47.444;8.334;2023-09-19T03:43:52;0.98;;;0.98;;
29688;SDS011;16600;47.444;8.334;2023-09-19T03:46:18;4.28;;;1.30;;
29688;SDS011;16600;47.444;8.334;2023-09-19T03:48:43;1.98;;;1.40;;
29688;SDS011;16600;47.444;8.334;2023-09-19T03:51:09;1.80;;;1.05;;
29688;SDS011;16600;47.444;8.334;2023-09-19T03:53:35;1.50;;;1.10;;
29688;SDS011;16600;47.444;8.334;2023-09-19T03:56:01;2.10;;;1.38;;
29688;SDS011;16600;47.444;8.334;2023-09-19T03:58:29;1.50;;;1.40;;
29688;SDS011;16600;47.444;8.334;2023-09-19T04:03:03;2.60;;;1.45;;
29688;SDS011;16600;47.444;8.334;2023-09-19T04:05:31;4.38;;;1.15;;
29688;SDS011;16600;47.444;8.334;2023-09-19T04:07:57;1.30;;;1.20;;
29688;SDS011;16600;47.444;8.334;2023-09-19T04:10:23;2.85;;;1.30;;
29688;SDS011;16600;47.444;8.334;2023-09-19T04:12:52;2.00;;;1.20;;
29688;SDS011;16600;47.444;8.334;2023-09-19T04:15:18;4.22;;;1.33;;
29688;SDS011;16600;47.444;8.334;2023-09-19T04:17:44;1.02;;;0.82;;
29688;SDS011;16600;47.444;8.334;2023-09-19T04:20:10;2.08;;;1.50;;
29688;SDS011;16600;47.444;8.334;2023-09-19T04:22:38;1.00;;;0.90;;
29688;SDS011;16600;47.444;8.334;2023-09-19T04:25:04;4.25;;;1.40;;
29688;SDS011;16600;47.444;8.334;2023-09-19T04:27:32;2.65;;;1.10;;
29688;SDS011;16600;47.444;8.334;2023-09-19T04:29:58;3.80;;;1.33;;
29688;SDS011;16600;47.444;8.334;2023-09-19T04:32:27;2.58;;;1.30;;
29688;SDS011;16600;47.444;8.334;2023-09-19T04:34:53;1.85;;;1.20;;
29688;SDS011;16600;47.444;8.334;2023-09-19T04:37:19;4.45;;;2.78;;
29688;SDS011;16600;47.444;8.334;2023-09-19T04:39:44;1.17;;;0.88;;
29688;SDS011;16600;47.444;8.334;2023-09-19T04:42:12;1.42;;;1.25;;
29688;SDS011;16600;47.444;8.334;2023-09-19T04:44:40;1.60;;;1.15;;
29688;SDS011;16600;47.444;8.334;2023-09-19T04:47:05;1.48;;;1.23;;
29688;SDS011;16600;47.444;8.334;2023-09-19T04:49:31;1.63;;;1.08;;
29688;SDS011;16600;47.444;8.334;2023-09-19T04:51:56;1.25;;;1.15;;
29688;SDS011;16600;47.444;8.334;2023-09-19T04:54:22;2.75;;;1.38;;
29688;SDS011;16600;47.444;8.334;2023-09-19T04:56:48;1.15;;;1.05;;
29688;SDS011;16600;47.444;8.334;2023-09-19T04:59:13;2.45;;;1.70;;
29688;SDS011;16600;47.444;8.334;2023-09-19T05:01:40;3.20;;;1.20;;
29688;SDS011;16600;47.444;8.334;2023-09-19T05:04:05;1.45;;;1.20;;
29688;SDS011;16600;47.444;8.334;2023-09-19T05:06:31;1.35;;;1.10;;
29688;SDS011;16600;47.444;8.334;2023-09-19T05:08:56;1.40;;;0.73;;
29688;SDS011;16600;47.444;8.334;2023-09-19T05:11:22;3.25;;;1.38;;
29688;SDS011;16600;47.444;8.334;2023-09-19T05:13:48;1.52;;;1.08;;
29688;SDS011;16600;47.444;8.334;2023-09-19T05:16:16;3.95;;;0.93;;
29688;SDS011;16600;47.444;8.334;2023-09-19T05:18:41;2.30;;;1.08;;
29688;SDS011;16600;47.444;8.334;2023-09-19T05:21:07;1.58;;;1.30;;
29688;SDS011;16600;47.444;8.334;2023-09-19T05:23:33;1.67;;;1.05;;
29688;SDS011;16600;47.444;8.334;2023-09-19T05:25:58;1.75;;;0.95;;
29688;SDS011;16600;47.444;8.334;2023-09-19T05:28:25;1.42;;;0.90;;
29688;SDS011;16600;47.444;8.334;2023-09-19T05:30:50;2.30;;;1.65;;
29688;SDS011;16600;47.444;8.334;2023-09-19T05:33:16;1.25;;;1.02;;
29688;SDS011;16600;47.444;8.334;2023-09-19T05:35:43;1.02;;;0.85;;
29688;SDS011;16600;47.444;8.334;2023-09-19T05:38:09;1.80;;;0.80;;
29688;SDS011;16600;47.444;8.334;2023-09-19T05:40:34;3.97;;;1.10;;
29688;SDS011;16600;47.444;8.334;2023-09-19T05:43:00;5.22;;;0.90;;
29688;SDS011;16600;47.444;8.334;2023-09-19T05:45:26;1.42;;;1.08;;
29688;SDS011;16600;47.444;8.334;2023-09-19T05:47:52;2.28;;;0.90;;
29688;SDS011;16600;47.444;8.334;2023-09-19T05:50:22;0.88;;;0.73;;
29688;SDS011;16600;47.444;8.334;2023-09-19T05:52:52;1.55;;;0.90;;
29688;SDS011;16600;47.444;8.334;2023-09-19T05:55:18;5.82;;;1.00;;
29688;SDS011;16600;47.444;8.334;2023-09-19T05:57:49;1.95;;;0.95;;
29688;SDS011;16600;47.444;8.334;2023-09-19T06:00:15;1.20;;;1.10;;
29688;SDS011;16600;47.444;8.334;2023-09-19T06:02:43;2.70;;;1.30;;
29688;SDS011;16600;47.444;8.334;2023-09-19T06:05:10;1.58;;;1.10;;
29688;SDS011;16600;47.444;8.334;2023-09-19T06:07:36;1.67;;;0.88;;
29688;SDS011;16600;47.444;8.334;2023-09-19T06:10:05;2.10;;;0.90;;
29688;SDS011;16600;47.444;8.334;2023-09-19T06:12:32;1.55;;;0.95;;
29688;SDS011;16600;47.444;8.334;2023-09-19T06:15:00;5.05;;;0.95;;
29688;SDS011;16600;47.444;8.334;2023-09-19T06:17:25;10.40;;;2.65;;
29688;SDS011;16600;47.444;8.334;2023-09-19T06:19:52;12.15;;;2.92;;
29688;SDS011;16600;47.444;8.334;2023-09-19T06:22:18;3.00;;;1.75;;
29688;SDS011;16600;47.444;8.334;2023-09-19T06:24:44;3.80;;;1.77;;
29688;SDS011;16600;47.444;8.334;2023-09-19T06:27:10;3.78;;;2.03;;
29688;SDS011;16600;47.444;8.334;2023-09-19T06:29:35;2.75;;;1.40;;
29688;SDS011;16600;47.444;8.334;2023-09-19T06:32:06;2.03;;;1.15;;
29688;SDS011;16600;47.444;8.334;2023-09-19T06:34:32;1.15;;;0.90;;
29688;SDS011;16600;47.444;8.334;2023-09-19T06:36:58;1.88;;;1.33;;
29688;SDS011;16600;47.444;8.334;2023-09-19T06:39:23;1.52;;;1.05;;
29688;SDS011;16600;47.444;8.334;2023-09-19T06:41:51;5.03;;;1.20;;
29688;SDS011;16600;47.444;8.334;2023-09-19T06:44:19;0.80;;;0.80;;
29688;SDS011;16600;47.444;8.334;2023-09-19T06:46:47;1.58;;;0.95;;
29688;SDS011;16600;47.444;8.334;2023-09-19T06:49:19;1.60;;;1.15;;
29688;SDS011;16600;47.444;8.334;2023-09-19T06:51:45;1.25;;;1.00;;
29688;SDS011;16600;47.444;8.334;2023-09-19T06:54:10;1.38;;;1.00;;
29688;SDS011;16600;47.444;8.334;2023-09-19T06:56:36;0.77;;;0.70;;
29688;SDS011;16600;47.444;8.334;2023-09-19T06:59:02;2.38;;;1.10;;
29688;SDS011;16600;47.444;8.334;2023-09-19T07:01:28;1.13;;;1.02;;
29688;SDS011;16600;47.444;8.334;2023-09-19T07:03:54;1.95;;;1.08;;
29688;SDS011;16600;47.444;8.334;2023-09-19T07:06:20;4.82;;;1.23;;
29688;SDS011;16600;47.444;8.334;2023-09-19T07:08:45;1.10;;;1.00;;
29688;SDS011;16600;47.444;8.334;2023-09-19T07:11:11;1.75;;;1.00;;
29688;SDS011;16600;47.444;8.334;2023-09-19T07:13:38;2.47;;;1.00;;
29688;SDS011;16600;47.444;8.334;2023-09-19T07:16:04;1.13;;;1.02;;
29688;SDS011;16600;47.444;8.334;2023-09-19T07:18:30;2.03;;;0.80;;
29688;SDS011;16600;47.444;8.334;2023-09-19T07:20:57;1.10;;;0.75;;
29688;SDS011;16600;47.444;8.334;2023-09-19T07:23:26;3.50;;;1.27;;
29688;SDS011;16600;47.444;8.334;2023-09-19T07:25:51;2.60;;;0.90;;
29688;SDS011;16600;47.444;8.334;2023-09-19T07:28:17;2.80;;;1.10;;
29688;SDS011;16600;47.444;8.334;2023-09-19T07:30:43;1.08;;;0.82;;
29688;SDS011;16600;47.444;8.334;2023-09-19T07:33:09;2.45;;;1.25;;
29688;SDS011;16600;47.444;8.334;2023-09-19T07:35:37;1.17;;;0.82;;
29688;SDS011;16600;47.444;8.334;2023-09-19T07:38:05;1.00;;;0.90;;
29688;SDS011;16600;47.444;8.334;2023-09-19T07:40:30;1.38;;;0.88;;
29688;SDS011;16600;47.444;8.334;2023-09-19T07:42:56;3.42;;;0.70;;
29688;SDS011;16600;47.444;8.334;2023-09-19T07:45:21;2.70;;;0.93;;
29688;SDS011;16600;47.444;8.334;2023-09-19T07:47:48;1.02;;;0.80;;
29688;SDS011;16600;47.444;8.334;2023-09-19T07:50:14;4.07;;;0.90;;
29688;SDS011;16600;47.444;8.334;2023-09-19T07:52:41;0.98;;;0.73;;
29688;SDS011;16600;47.444;8.334;2023-09-19T07:55:08;1.75;;;0.80;;
29688;SDS011;16600;47.444;8.334;2023-09-19T07:57:35;1.80;;;0.90;;
29688;SDS011;16600;47.444;8.334;2023-09-19T08:00:00;1.27;;;0.85;;
29688;SDS011;16600;47.444;8.334;2023-09-19T08:02:26;3.53;;;1.00;;
29688;SDS011;16600;47.444;8.334;2023-09-19T08:04:53;2.00;;;1.20;;
29688;SDS011;16600;47.444;8.334;2023-09-19T08:07:19;2.05;;;1.02;;
29688;SDS011;16600;47.444;8.334;2023-09-19T08:09:45;1.05;;;0.82;;
29688;SDS011;16600;47.444;8.334;2023-09-19T08:12:14;4.38;;;0.75;;
29688;SDS011;16600;47.444;8.334;2023-09-19T08:14:40;1.63;;;0.90;;
29688;SDS011;16600;47.444;8.334;2023-09-19T08:17:07;1.35;;;0.77;;
29688;SDS011;16600;47.444;8.334;2023-09-19T08:19:33;1.63;;;1.15;;
29688;SDS011;16600;47.444;8.334;2023-09-19T08:21:59;1.08;;;0.80;;
29688;SDS011;16600;47.444;8.334;2023-09-19T08:24:27;1.02;;;0.80;;
29688;SDS011;16600;47.444;8.334;2023-09-19T08:26:56;0.68;;;0.55;;
29688;SDS011;16600;47.444;8.334;2023-09-19T08:29:22;1.02;;;0.70;;
29688;SDS011;16600;47.444;8.334;2023-09-19T08:31:55;0.60;;;0.60;;
29688;SDS011;16600;47.444;8.334;2023-09-19T08:34:22;0.82;;;0.82;;
29688;SDS011;16600;47.444;8.334;2023-09-19T08:36:49;1.73;;;1.00;;
29688;SDS011;16600;47.444;8.334;2023-09-19T08:39:15;1.27;;;0.90;;
29688;SDS011;16600;47.444;8.334;2023-09-19T08:41:42;1.75;;;0.90;;
29688;SDS011;16600;47.444;8.334;2023-09-19T08:44:07;1.52;;;1.00;;
29688;SDS011;16600;47.444;8.334;2023-09-19T08:46:35;1.77;;;0.90;;
29688;SDS011;16600;47.444;8.334;2023-09-19T08:49:04;1.00;;;0.82;;
29688;SDS011;16600;47.444;8.334;2023-09-19T08:54:03;0.93;;;0.80;;
29688;SDS011;16600;47.444;8.334;2023-09-19T08:56:32;0.82;;;0.82;;
29688;SDS011;16600;47.444;8.334;2023-09-19T08:59:02;0.85;;;0.60;;
29688;SDS011;16600;47.444;8.334;2023-09-19T09:01:29;1.08;;;0.80;;
29688;SDS011;16600;47.444;8.334;2023-09-19T09:03:57;8.80;;;1.58;;
29688;SDS011;16600;47.444;8.334;2023-09-19T09:06:24;1.55;;;0.93;;
29688;SDS011;16600;47.444;8.334;2023-09-19T09:08:50;3.10;;;1.00;;
29688;SDS011;16600;47.444;8.334;2023-09-19T09:11:16;0.47;;;0.45;;
29688;SDS011;16600;47.444;8.334;2023-09-19T09:13:45;6.10;;;1.00;;
29688;SDS011;16600;47.444;8.334;2023-09-19T09:16:11;2.30;;;0.88;;
29688;SDS011;16600;47.444;8.334;2023-09-19T09:18:38;1.65;;;1.05;;
29688;SDS011;16600;47.444;8.334;2023-09-19T09:21:03;0.70;;;0.70;;
29688;SDS011;16600;47.444;8.334;2023-09-19T09:23:29;0.80;;;0.80;;
29688;SDS011;16600;47.444;8.334;2023-09-19T09:25:55;0.65;;;0.65;;
29688;SDS011;16600;47.444;8.334;2023-09-19T09:28:33;0.70;;;0.60;;
29688;SDS011;16600;47.444;8.334;2023-09-19T09:30:59;2.70;;;1.63;;
29688;SDS011;16600;47.444;8.334;2023-09-19T09:33:25;1.33;;;0.90;;
29688;SDS011;16600;47.444;8.334;2023-09-19T09:38:22;2.45;;;1.30;;
29688;SDS011;16600;47.444;8.334;2023-09-19T09:40:56;2.30;;;0.90;;
29688;SDS011;16600;47.444;8.334;2023-09-19T09:46:09;0.90;;;0.90;;
29688;SDS011;16600;47.444;8.334;2023-09-19T09:51:33;3.08;;;1.23;;
29688;SDS011;16600;47.444;8.334;2023-09-19T09:54:14;1.63;;;1.00;;
29688;SDS011;16600;47.444;8.334;2023-09-19T09:56:57;0.90;;;0.90;;
29688;SDS011;16600;47.444;8.334;2023-09-19T10:03:01;1.08;;;0.98;;
29688;SDS011;16600;47.444;8.334;2023-09-19T10:05:27;2.17;;;0.95;;
29688;SDS011;16600;47.444;8.334;2023-09-19T10:07:52;0.88;;;0.75;;
29688;SDS011;16600;47.444;8.334;2023-09-19T10:10:37;1.65;;;1.02;;
29688;SDS011;16600;47.444;8.334;2023-09-19T10:13:06;0.90;;;0.90;;
29688;SDS011;16600;47.444;8.334;2023-09-19T10:15:33;2.03;;;1.00;;
29688;SDS011;16600;47.444;8.334;2023-09-19T10:18:01;0.70;;;0.70;;
29688;SDS011;16600;47.444;8.334;2023-09-19T10:20:29;0.80;;;0.80;;
29688;SDS011;16600;47.444;8.334;2023-09-19T10:22:55;1.00;;;0.90;;
29688;SDS011;16600;47.444;8.334;2023-09-19T10:25:28;0.63;;;0.63;;
29688;SDS011;16600;47.444;8.334;2023-09-19T10:27:56;0.93;;;0.70;;
29688;SDS011;16600;47.444;8.334;2023-09-19T10:30:24;0.85;;;0.80;;
29688;SDS011;16600;47.444;8.334;2023-09-19T10:32:55;1.90;;;1.02;;
29688;SDS011;16600;47.444;8.334;2023-09-19T10:35:22;2.10;;;0.93;;
29688;SDS011;16600;47.444;8.334;2023-09-19T10:37:49;1.10;;;0.90;;
29688;SDS011;16600;47.444;8.334;2023-09-19T10:40:15;11.05;;;1.10;;
29688;SDS011;16600;47.444;8.334;2023-09-19T10:42:42;1.52;;;0.90;;
29688;SDS011;16600;47.444;8.334;2023-09-19T10:45:09;1.65;;;0.82;;
29688;SDS011;16600;47.444;8.334;2023-09-19T10:47:40;1.00;;;0.90;;
29688;SDS011;16600;47.444;8.334;2023-09-19T10:50:06;1.60;;;0.75;;
29688;SDS011;16600;47.444;8.334;2023-09-19T10:52:38;0.90;;;0.88;;
29688;SDS011;16600;47.444;8.334;2023-09-19T10:55:06;5.97;;;1.10;;
29688;SDS011;16600;47.444;8.334;2023-09-19T10:57:32;1.25;;;0.95;;
29688;SDS011;16600;47.444;8.334;2023-09-19T11:00:08;2.45;;;0.90;;
29688;SDS011;16600;47.444;8.334;2023-09-19T11:05:34;1.83;;;1.10;;
29688;SDS011;16600;47.444;8.334;2023-09-19T11:07:59;6.63;;;1.38;;
29688;SDS011;16600;47.444;8.334;2023-09-19T11:10:48;1.20;;;1.10;;
29688;SDS011;16600;47.444;8.334;2023-09-19T11:13:27;1.20;;;0.93;;
29688;SDS011;16600;47.444;8.334;2023-09-19T11:26:41;3.90;;;1.20;;
29688;SDS011;16600;47.444;8.334;2023-09-19T11:29:28;1.27;;;0.98;;
29688;SDS011;16600;47.444;8.334;2023-09-19T11:31:54;1.05;;;0.90;;
29688;SDS011;16600;47.444;8.334;2023-09-19T11:37:04;1.08;;;0.98;;
29688;SDS011;16600;47.444;8.334;2023-09-19T11:40:06;2.33;;;1.50;;
29688;SDS011;16600;47.444;8.334;2023-09-19T11:42:53;1.65;;;1.15;;
29688;SDS011;16600;47.444;8.334;2023-09-19T11:48:20;1.77;;;0.70;;
29688;SDS011;16600;47.444;8.334;2023-09-19T11:50:50;1.75;;;1.00;;
29688;SDS011;16600;47.444;8.334;2023-09-19T11:53:16;1.20;;;0.93;;
29688;SDS011;16600;47.444;8.334;2023-09-19T11:55:42;0.65;;;0.57;;
29688;SDS011;16600;47.444;8.334;2023-09-19T11:58:08;1.10;;;1.00;;
29688;SDS011;16600;47.444;8.334;2023-09-19T12:00:34;2.47;;;1.20;;
29688;SDS011;16600;47.444;8.334;2023-09-19T12:03:02;2.13;;;1.38;;
29688;SDS011;16600;47.444;8.334;2023-09-19T12:05:32;1.40;;;0.80;;
29688;SDS011;16600;47.444;8.334;2023-09-19T12:07:58;1.15;;;0.93;;
29688;SDS011;16600;47.444;8.334;2023-09-19T12:10:24;1.23;;;0.63;;
29688;SDS011;16600;47.444;8.334;2023-09-19T12:12:50;2.33;;;1.17;;
29688;SDS011;16600;47.444;8.334;2023-09-19T12:15:23;1.67;;;1.40;;
29688;SDS011;16600;47.444;8.334;2023-09-19T12:17:54;1.90;;;1.35;;
29688;SDS011;16600;47.444;8.334;2023-09-19T12:20:19;1.90;;;0.88;;
29688;SDS011;16600;47.444;8.334;2023-09-19T12:22:46;0.70;;;0.70;;
29688;SDS011;16600;47.444;8.334;2023-09-19T12:25:14;1.52;;;0.93;;
29688;SDS011;16600;47.444;8.334;2023-09-19T12:27:42;1.73;;;1.05;;
29688;SDS011;16600;47.444;8.334;2023-09-19T12:30:09;1.15;;;1.00;;
29688;SDS011;16600;47.444;8.334;2023-09-19T12:32:35;3.35;;;0.90;;
29688;SDS011;16600;47.444;8.334;2023-09-19T12:35:01;1.85;;;1.60;;
29688;SDS011;16600;47.444;8.334;2023-09-19T12:37:32;1.38;;;1.15;;
29688;SDS011;16600;47.444;8.334;2023-09-19T12:40:07;2.33;;;1.58;;
29688;SDS011;16600;47.444;8.334;2023-09-19T12:42:42;1.27;;;0.98;;
29688;SDS011;16600;47.444;8.334;2023-09-19T12:45:09;2.22;;;1.00;;
29688;SDS011;16600;47.444;8.334;2023-09-19T12:47:36;1.27;;;1.10;;
29688;SDS011;16600;47.444;8.334;2023-09-19T12:50:04;1.10;;;1.00;;
29688;SDS011;16600;47.444;8.334;2023-09-19T12:52:37;2.28;;;1.13;;
29688;SDS011;16600;47.444;8.334;2023-09-19T12:55:03;2.60;;;0.95;;
29688;SDS011;16600;47.444;8.334;2023-09-19T12:57:30;2.17;;;1.30;;
29688;SDS011;16600;47.444;8.334;2023-09-19T13:00:03;0.95;;;0.77;;
29688;SDS011;16600;47.444;8.334;2023-09-19T13:02:31;1.50;;;1.17;;
29688;SDS011;16600;47.444;8.334;2023-09-19T13:04:56;0.82;;;0.82;;
29688;SDS011;16600;47.444;8.334;2023-09-19T13:07:41;1.40;;;0.60;;
29688;SDS011;16600;47.444;8.334;2023-09-19T13:10:09;0.85;;;0.70;;
29688;SDS011;16600;47.444;8.334;2023-09-19T13:12:35;1.92;;;0.93;;
29688;SDS011;16600;47.444;8.334;2023-09-19T13:15:09;2.00;;;1.08;;
29688;SDS011;16600;47.444;8.334;2023-09-19T13:17:43;0.93;;;0.88;;
29688;SDS011;16600;47.444;8.334;2023-09-19T13:20:20;0.93;;;0.73;;
29688;SDS011;16600;47.444;8.334;2023-09-19T13:22:46;1.83;;;1.13;;
29688;SDS011;16600;47.444;8.334;2023-09-19T13:25:19;0.93;;;0.85;;
29688;SDS011;16600;47.444;8.334;2023-09-19T13:27:45;1.35;;;1.02;;
29688;SDS011;16600;47.444;8.334;2023-09-19T13:30:11;2.58;;;1.10;;
29688;SDS011;16600;47.444;8.334;2023-09-19T13:32:37;1.20;;;0.90;;
29688;SDS011;16600;47.444;8.334;2023-09-19T13:35:04;1.33;;;0.80;;
29688;SDS011;16600;47.444;8.334;2023-09-19T13:37:30;2.22;;;1.10;;
29688;SDS011;16600;47.444;8.334;2023-09-19T13:39:56;1.73;;;1.25;;
29688;SDS011;16600;47.444;8.334;2023-09-19T13:42:24;4.72;;;1.40;;
29688;SDS011;16600;47.444;8.334;2023-09-19T13:44:50;1.13;;;1.00;;
29688;SDS011;16600;47.444;8.334;2023-09-19T13:47:16;2.03;;;1.05;;
29688;SDS011;16600;47.444;8.334;2023-09-19T13:49:49;1.50;;;1.02;;
29688;SDS011;16600;47.444;8.334;2023-09-19T13:52:18;1.02;;;1.00;;
29688;SDS011;16600;47.444;8.334;2023-09-19T13:54:44;1.98;;;1.27;;
29688;SDS011;16600;47.444;8.334;2023-09-19T13:57:09;1.30;;;1.10;;
29688;SDS011;16600;47.444;8.334;2023-09-19T13:59:35;2.15;;;1.15;;
29688;SDS011;16600;47.444;8.334;2023-09-19T14:02:00;3.05;;;1.55;;
29688;SDS011;16600;47.444;8.334;2023-09-19T14:04:27;3.20;;;1.45;;
29688;SDS011;16600;47.444;8.334;2023-09-19T14:06:54;0.70;;;0.70;;
29688;SDS011;16600;47.444;8.334;2023-09-19T14:09:19;1.83;;;1.23;;
29688;SDS011;16600;47.444;8.334;2023-09-19T14:11:46;2.38;;;1.23;;
29688;SDS011;16600;47.444;8.334;2023-09-19T14:14:13;2.42;;;1.20;;
29688;SDS011;16600;47.444;8.334;2023-09-19T14:16:38;1.10;;;0.95;;
29688;SDS011;16600;47.444;8.334;2023-09-19T14:19:07;0.70;;;0.60;;
29688;SDS011;16600;47.444;8.334;2023-09-19T14:21:33;1.85;;;1.33;;
29688;SDS011;16600;47.444;8.334;2023-09-19T14:23:58;1.98;;;1.00;;
29688;SDS011;16600;47.444;8.334;2023-09-19T14:26:24;5.75;;;1.20;;
29688;SDS011;16600;47.444;8.334;2023-09-19T14:28:49;2.22;;;1.23;;
29688;SDS011;16600;47.444;8.334;2023-09-19T14:31:15;2.00;;;1.38;;
29688;SDS011;16600;47.444;8.334;2023-09-19T14:33:40;2.33;;;1.60;;
29688;SDS011;16600;47.444;8.334;2023-09-19T14:36:07;1.20;;;1.10;;
29688;SDS011;16600;47.444;8.334;2023-09-19T14:38:34;1.30;;;1.20;;
29688;SDS011;16600;47.444;8.334;2023-09-19T14:41:03;1.70;;;1.27;;
29688;SDS011;16600;47.444;8.334;2023-09-19T14:43:29;2.25;;;1.30;;
29688;SDS011;16600;47.444;8.334;2023-09-19T14:45:56;1.98;;;1.00;;
29688;SDS011;16600;47.444;8.334;2023-09-19T14:48:22;1.80;;;1.20;;
29688;SDS011;16600;47.444;8.334;2023-09-19T14:50:51;3.55;;;1.40;;
29688;SDS011;16600;47.444;8.334;2023-09-19T14:53:17;2.30;;;1.30;;
29688;SDS011;16600;47.444;8.334;2023-09-19T14:55:43;1.55;;;1.42;;
29688;SDS011;16600;47.444;8.334;2023-09-19T14:58:10;1.23;;;1.08;;
29688;SDS011;16600;47.444;8.334;2023-09-19T15:00:36;3.03;;;2.13;;
29688;SDS011;16600;47.444;8.334;2023-09-19T15:03:01;1.65;;;1.42;;
29688;SDS011;16600;47.444;8.334;2023-09-19T15:05:27;0.80;;;0.80;;
29688;SDS011;16600;47.444;8.334;2023-09-19T15:07:55;1.92;;;1.50;;
29688;SDS011;16600;47.444;8.334;2023-09-19T15:10:22;1.65;;;1.55;;
29688;SDS011;16600;47.444;8.334;2023-09-19T15:12:48;3.00;;;1.13;;
29688;SDS011;16600;47.444;8.334;2023-09-19T15:15:14;1.38;;;1.20;;
29688;SDS011;16600;47.444;8.334;2023-09-19T15:17:39;2.33;;;1.23;;
29688;SDS011;16600;47.444;8.334;2023-09-19T15:20:05;5.53;;;1.50;;
29688;SDS011;16600;47.444;8.334;2023-09-19T15:22:32;3.53;;;1.08;;
29688;SDS011;16600;47.444;8.334;2023-09-19T15:24:58;1.13;;;1.02;;
29688;SDS011;16600;47.444;8.334;2023-09-19T15:27:24;2.40;;;1.27;;
29688;SDS011;16600;47.444;8.334;2023-09-19T15:29:50;2.53;;;1.20;;
29688;SDS011;16600;47.444;8.334;2023-09-19T15:32:16;2.08;;;1.50;;
29688;SDS011;16600;47.444;8.334;2023-09-19T15:34:42;2.40;;;1.50;;
29688;SDS011;16600;47.444;8.334;2023-09-19T15:37:07;2.78;;;1.00;;
29688;SDS011;16600;47.444;8.334;2023-09-19T15:39:33;1.70;;;1.10;;
29688;SDS011;16600;47.444;8.334;2023-09-19T15:41:58;2.08;;;1.10;;
29688;SDS011;16600;47.444;8.334;2023-09-19T15:44:24;1.33;;;1.00;;
29688;SDS011;16600;47.444;8.334;2023-09-19T15:46:52;1.95;;;1.38;;
29688;SDS011;16600;47.444;8.334;2023-09-19T15:49:18;1.33;;;1.17;;